Time;durP1;ratioP1;P1;durP2;ratioP2;P2;SDS_P1;SDS_P2;PMS_P1;PMS_P2;Temp;Humidity;BMP_temperature;BMP_pressure;BME280_temperature;BME280_humidity;BME280_pressure;Samples;Min_cycle;Max_cycle;Signal;HPM_P1;HPM_P2
2023/11/05 00:01:57;;;;;;;1.98;1.88;;;;;;;;;;4129892;28;20116;-64
2023/11/05 00:04:09;;;;;;;2.13;1.40;;;;;;;;;;4137772;28;20030;-64
2023/11/05 00:06:11;;;;;;;2.97;1.80;;;;;;;;;;4114147;28;20105;-64
2023/11/05 00:08:13;;;;;;;6.00;1.80;;;;;;;;;;4122624;28;20103;-65
2023/11/05 00:10:14;;;;;;;10.50;3.15;;;;;;;;;;4130046;28;20054;-64
2023/11/05 00:12:16;;;;;;;3.70;1.55;;;;;;;;;;4129935;28;20050;-63
2023/11/05 00:14:18;;;;;;;4.72;2.08;;;;;;;;;;4130349;28;20514;-64
2023/11/05 00:16:20;;;;;;;6.95;2.67;;;;;;;;;;4124279;28;20092;-64
2023/11/05 00:18:21;;;;;;;9.65;2.75;;;;;;;;;;4123602;28;20074;-64
2023/11/05 00:20:23;;;;;;;9.90;2.75;;;;;;;;;;4123438;28;20136;-63
2023/11/05 00:22:25;;;;;;;12.67;2.63;;;;;;;;;;4130209;28;20038;-64
2023/11/05 00:24:27;;;;;;;5.80;2.53;;;;;;;;;;4130361;28;20294;-64
2023/11/05 00:26:28;;;;;;;6.72;2.47;;;;;;;;;;4130260;28;20050;-64
2023/11/05 00:28:30;;;;;;;8.52;2.15;;;;;;;;;;4112689;28;20595;-65
2023/11/05 00:30:32;;;;;;;4.53;2.67;;;;;;;;;;4129772;28;20499;-65
2023/11/05 00:32:33;;;;;;;8.40;3.38;;;;;;;;;;4130237;28;20048;-64
2023/11/05 00:34:35;;;;;;;4.63;3.15;;;;;;;;;;4130074;28;20046;-65
2023/11/05 00:36:37;;;;;;;10.00;3.08;;;;;;;;;;4128639;28;20133;-64
2023/11/05 00:38:39;;;;;;;6.05;3.17;;;;;;;;;;4129852;28;20093;-64
2023/11/05 00:40:41;;;;;;;9.82;2.85;;;;;;;;;;4126911;28;20034;-64
2023/11/05 00:42:43;;;;;;;12.00;2.85;;;;;;;;;;4128113;28;20122;-64
2023/11/05 00:44:45;;;;;;;6.03;3.38;;;;;;;;;;4121287;28;20042;-64
2023/11/05 00:46:46;;;;;;;9.57;2.03;;;;;;;;;;4125144;28;20042;-65
2023/11/05 00:48:48;;;;;;;5.40;3.40;;;;;;;;;;4117094;28;20031;-65
2023/11/05 00:50:50;;;;;;;12.10;4.00;;;;;;;;;;4125000;28;20285;-64
2023/11/05 00:52:51;;;;;;;2.75;2.25;;;;;;;;;;4132954;28;20085;-65
2023/11/05 00:54:53;;;;;;;8.30;3.55;;;;;;;;;;4132866;28;20046;-64
2023/11/05 00:56:55;;;;;;;5.80;2.45;;;;;;;;;;4132871;28;20038;-65
2023/11/05 00:58:56;;;;;;;7.47;2.10;;;;;;;;;;4132459;28;20451;-65
2023/11/05 01:00:58;;;;;;;5.55;3.05;;;;;;;;;;4135311;28;20085;-64
2023/11/05 01:03:00;;;;;;;7.18;2.80;;;;;;;;;;4116707;28;20047;-65
2023/11/05 01:05:03;;;;;;;6.85;2.35;;;;;;;;;;4116487;28;20072;-65
2023/11/05 01:07:05;;;;;;;6.53;2.97;;;;;;;;;;4116606;28;20529;-65
2023/11/05 01:09:06;;;;;;;6.28;2.40;;;;;;;;;;4132409;28;20490;-65
2023/11/05 01:11:08;;;;;;;8.13;2.90;;;;;;;;;;4132378;28;20442;-65
2023/11/05 01:13:10;;;;;;;3.92;2.42;;;;;;;;;;4132497;28;20089;-65
2023/11/05 01:15:11;;;;;;;4.32;2.08;;;;;;;;;;4132593;28;20414;-65
2023/11/05 01:17:14;;;;;;;4.57;2.30;;;;;;;;;;4132582;28;20046;-65
2023/11/05 01:19:15;;;;;;;4.03;2.42;;;;;;;;;;4132469;28;20470;-65
2023/11/05 01:21:17;;;;;;;7.38;2.10;;;;;;;;;;4132395;28;20053;-65
2023/11/05 01:23:19;;;;;;;12.53;2.70;;;;;;;;;;4132541;28;20042;-66
2023/11/05 01:25:21;;;;;;;5.10;2.20;;;;;;;;;;4132087;28;20046;-66
2023/11/05 01:27:23;;;;;;;6.18;3.45;;;;;;;;;;4132481;28;20043;-66
2023/11/05 01:29:25;;;;;;;7.55;4.03;;;;;;;;;;4132681;28;20045;-66
2023/11/05 01:31:27;;;;;;;7.07;3.65;;;;;;;;;;4132333;28;20125;-66
2023/11/05 01:33:28;;;;;;;6.18;3.33;;;;;;;;;;4132567;28;20050;-67
2023/11/05 01:35:30;;;;;;;7.82;3.30;;;;;;;;;;4132501;28;20446;-66
2023/11/05 01:37:32;;;;;;;2.97;2.00;;;;;;;;;;4131119;28;20054;-65
2023/11/05 01:39:34;;;;;;;7.70;3.35;;;;;;;;;;4131929;28;20213;-65
2023/11/05 01:41:35;;;;;;;10.35;3.25;;;;;;;;;;4132232;28;20038;-65
2023/11/05 01:43:37;;;;;;;3.60;3.30;;;;;;;;;;4132172;28;20060;-65
2023/11/05 01:45:39;;;;;;;3.53;2.33;;;;;;;;;;4132114;28;20125;-66
2023/11/05 01:47:40;;;;;;;4.90;3.08;;;;;;;;;;4118443;28;20042;-65
2023/11/05 01:49:42;;;;;;;4.10;2.00;;;;;;;;;;4115936;28;20514;-65
2023/11/05 01:51:44;;;;;;;6.68;2.63;;;;;;;;;;4116004;28;20085;-65
2023/11/05 01:53:48;;;;;;;3.90;2.10;;;;;;;;;;4125417;28;20514;-65
2023/11/05 01:55:50;;;;;;;2.85;1.83;;;;;;;;;;4134645;28;20061;-64
2023/11/05 01:57:52;;;;;;;7.10;2.30;;;;;;;;;;4128620;28;20101;-65
2023/11/05 01:59:54;;;;;;;2.58;1.42;;;;;;;;;;4131815;28;20042;-65
2023/11/05 02:01:56;;;;;;;3.78;1.60;;;;;;;;;;4131860;28;20046;-65
2023/11/05 02:04:00;;;;;;;1.75;1.38;;;;;;;;;;4131696;28;20383;-64
2023/11/05 02:06:02;;;;;;;4.70;1.67;;;;;;;;;;4131443;28;20134;-65
2023/11/05 02:08:04;;;;;;;2.90;1.48;;;;;;;;;;4131839;28;20038;-66
2023/11/05 02:10:05;;;;;;;4.80;2.03;;;;;;;;;;4131956;28;20502;-66
2023/11/05 02:12:08;;;;;;;4.50;2.35;;;;;;;;;;4131605;28;20160;-65
2023/11/05 02:14:15;;;;;;;3.22;1.35;;;;;;;;;;4131667;28;20050;-66
2023/11/05 02:16:18;;;;;;;3.15;1.98;;;;;;;;;;4131795;28;20047;-66
2023/11/05 02:18:21;;;;;;;4.53;1.83;;;;;;;;;;4131547;28;20040;-65
2023/11/05 02:20:23;;;;;;;3.33;1.48;;;;;;;;;;4131233;28;20447;-66
2023/11/05 02:22:26;;;;;;;6.03;2.28;;;;;;;;;;4115584;28;20053;-66
2023/11/05 02:24:28;;;;;;;3.45;1.75;;;;;;;;;;4115324;28;20043;-66
2023/11/05 02:26:29;;;;;;;5.13;1.30;;;;;;;;;;4115343;28;20396;-66
2023/11/05 02:28:32;;;;;;;1.50;1.40;;;;;;;;;;4115487;28;20123;-66
2023/11/05 02:30:34;;;;;;;3.20;1.98;;;;;;;;;;4115281;28;20046;-65
2023/11/05 02:32:36;;;;;;;5.00;1.83;;;;;;;;;;4115254;28;20565;-65
2023/11/05 02:34:38;;;;;;;2.67;2.47;;;;;;;;;;4115289;28;20519;-66
2023/11/05 02:36:40;;;;;;;3.65;2.30;;;;;;;;;;4115454;28;20047;-66
2023/11/05 02:38:42;;;;;;;1.92;1.80;;;;;;;;;;4115062;28;20443;-66
2023/11/05 02:40:44;;;;;;;2.55;1.88;;;;;;;;;;4115029;28;20045;-65
2023/11/05 02:42:48;;;;;;;4.78;1.60;;;;;;;;;;4115261;28;20105;-67
2023/11/05 02:44:51;;;;;;;1.45;1.35;;;;;;;;;;4118362;28;20038;-66
2023/11/05 02:46:53;;;;;;;2.05;1.50;;;;;;;;;;4123837;28;20447;-66
2023/11/05 02:48:54;;;;;;;3.50;1.50;;;;;;;;;;4121553;28;20092;-65
2023/11/05 02:50:56;;;;;;;3.80;1.30;;;;;;;;;;4131095;28;20047;-66
2023/11/05 02:52:57;;;;;;;3.17;1.25;;;;;;;;;;4137776;28;20295;-66
2023/11/05 02:55:00;;;;;;;3.77;1.27;;;;;;;;;;4115054;28;20047;-66
2023/11/05 02:57:03;;;;;;;3.38;1.20;;;;;;;;;;4114965;28;20373;-67
2023/11/05 02:59:04;;;;;;;4.25;1.33;;;;;;;;;;4114976;28;20408;-66
2023/11/05 03:01:06;;;;;;;1.40;1.30;;;;;;;;;;4128085;28;20089;-66
2023/11/05 03:03:08;;;;;;;1.60;1.50;;;;;;;;;;4130709;28;20053;-67
2023/11/05 03:05:10;;;;;;;1.83;1.52;;;;;;;;;;4130508;28;20050;-67
2023/11/05 03:07:14;;;;;;;1.60;1.60;;;;;;;;;;4130247;28;20035;-66
2023/11/05 03:09:24;;;;;;;2.05;1.63;;;;;;;;;;4130564;28;20553;-66
2023/11/05 03:11:26;;;;;;;1.40;1.30;;;;;;;;;;4130231;28;20034;-65
2023/11/05 03:13:27;;;;;;;2.83;1.20;;;;;;;;;;4130748;28;20038;-66
2023/11/05 03:15:29;;;;;;;2.88;1.33;;;;;;;;;;4130850;28;20420;-66
2023/11/05 03:17:31;;;;;;;3.08;1.50;;;;;;;;;;4130185;28;20046;-66
2023/11/05 03:19:33;;;;;;;2.45;1.45;;;;;;;;;;4130645;28;20046;-66
2023/11/05 03:21:35;;;;;;;1.40;1.30;;;;;;;;;;4130624;28;20042;-66
2023/11/05 03:23:37;;;;;;;1.27;1.17;;;;;;;;;;4130771;28;20046;-66
2023/11/05 03:25:41;;;;;;;1.67;1.13;;;;;;;;;;4130654;28;20109;-65
2023/11/05 03:27:42;;;;;;;1.20;1.10;;;;;;;;;;4130622;28;20038;-65
2023/11/05 03:29:44;;;;;;;2.03;1.10;;;;;;;;;;4130677;28;20561;-65
2023/11/05 03:31:50;;;;;;;3.28;1.10;;;;;;;;;;4130720;28;20038;-65
2023/11/05 03:33:51;;;;;;;2.33;1.95;;;;;;;;;;4130558;28;20038;-66
2023/11/05 03:35:53;;;;;;;4.88;1.40;;;;;;;;;;4130401;28;20038;-66
2023/11/05 03:37:55;;;;;;;2.90;1.25;;;;;;;;;;4130543;28;20569;-65
2023/11/05 03:39:57;;;;;;;4.05;0.95;;;;;;;;;;4130140;28;20038;-67
2023/11/05 03:41:59;;;;;;;1.38;1.30;;;;;;;;;;4130116;28;20043;-66
2023/11/05 03:44:00;;;;;;;1.17;1.08;;;;;;;;;;4130518;28;20053;-65
2023/11/05 03:46:02;;;;;;;4.47;1.65;;;;;;;;;;4130062;28;20035;-65
2023/11/05 03:48:05;;;;;;;1.73;1.45;;;;;;;;;;4131218;28;20042;-65
2023/11/05 03:50:06;;;;;;;;;;;;;;;;;;4125353;28;20050;-65
2023/11/05 03:52:09;;;;;;;2.38;1.45;;;;;;;;;;4126541;28;19925;-65
2023/11/05 03:54:10;;;;;;;1.95;1.25;;;;;;;;;;4128076;28;20046;-66
2023/11/05 03:56:14;;;;;;;6.90;1.93;;;;;;;;;;4129991;28;20051;-67
2023/11/05 03:58:16;;;;;;;1.30;1.10;;;;;;;;;;4130145;28;20297;-67
2023/11/05 04:00:17;;;;;;;1.20;1.20;;;;;;;;;;4129975;28;20048;-67
2023/11/05 04:02:20;;;;;;;1.30;1.30;;;;;;;;;;4130328;28;20449;-66
2023/11/05 04:04:22;;;;;;;1.55;1.30;;;;;;;;;;4130295;28;20524;-67
2023/11/05 04:06:24;;;;;;;1.45;1.45;;;;;;;;;;4130213;28;20081;-66
2023/11/05 04:08:26;;;;;;;1.45;1.42;;;;;;;;;;4130168;28;20042;-67
2023/11/05 04:10:28;;;;;;;1.20;1.20;;;;;;;;;;4129966;28;20080;-67
2023/11/05 04:12:34;;;;;;;1.38;1.38;;;;;;;;;;4130349;28;20129;-66
2023/11/05 04:14:36;;;;;;;4.60;2.15;;;;;;;;;;4130170;28;20046;-66
2023/11/05 04:16:37;;;;;;;1.70;1.10;;;;;;;;;;4130198;28;20042;-66
2023/11/05 04:18:41;;;;;;;1.10;1.10;;;;;;;;;;4129869;28;20392;-66
2023/11/05 04:20:42;;;;;;;1.50;1.40;;;;;;;;;;4129984;28;20388;-65
2023/11/05 04:22:45;;;;;;;4.22;1.35;;;;;;;;;;4132883;28;20046;-65
2023/11/05 04:24:47;;;;;;;4.80;1.30;;;;;;;;;;4133280;28;20082;-66
2023/11/05 04:26:49;;;;;;;4.07;2.03;;;;;;;;;;4133359;28;20043;-66
2023/11/05 04:28:51;;;;;;;4.03;2.10;;;;;;;;;;4116235;28;20141;-67
2023/11/05 04:30:52;;;;;;;9.15;2.03;;;;;;;;;;4133176;28;20050;-66
2023/11/05 04:32:54;;;;;;;2.42;2.17;;;;;;;;;;4133250;28;20054;-66
2023/11/05 04:34:55;;;;;;;5.60;1.70;;;;;;;;;;4133102;28;20042;-66
2023/11/05 04:36:57;;;;;;;1.83;1.38;;;;;;;;;;4132663;28;20301;-66
2023/11/05 04:39:02;;;;;;;2.90;1.38;;;;;;;;;;4116830;28;20919;-66
2023/11/05 04:41:04;;;;;;;1.50;1.40;;;;;;;;;;4116296;28;20137;-66
2023/11/05 04:43:05;;;;;;;2.25;1.60;;;;;;;;;;4116778;28;20049;-66
2023/11/05 04:45:07;;;;;;;2.95;2.05;;;;;;;;;;4131318;28;20042;-66
2023/11/05 04:47:09;;;;;;;1.70;1.55;;;;;;;;;;4118538;28;20043;-66
2023/11/05 04:49:11;;;;;;;3.70;1.77;;;;;;;;;;4116788;28;20102;-66
2023/11/05 04:51:13;;;;;;;8.52;3.42;;;;;;;;;;4116872;28;20047;-66
2023/11/05 04:53:16;;;;;;;2.97;1.83;;;;;;;;;;4125715;28;20042;-65
2023/11/05 04:55:18;;;;;;;2.20;2.00;;;;;;;;;;4132784;28;20108;-65
2023/11/05 04:57:20;;;;;;;5.22;2.13;;;;;;;;;;4132633;28;20125;-66
2023/11/05 04:59:22;;;;;;;15.18;2.97;;;;;;;;;;4132251;28;20046;-66
2023/11/05 05:01:24;;;;;;;3.47;2.58;;;;;;;;;;4132287;28;20038;-65
2023/11/05 05:03:25;;;;;;;6.82;3.38;;;;;;;;;;4132071;28;20089;-65
2023/11/05 05:05:27;;;;;;;6.18;2.25;;;;;;;;;;4114762;28;20059;-66
2023/11/05 05:07:29;;;;;;;6.95;3.13;;;;;;;;;;4132361;28;20046;-65
2023/11/05 05:09:31;;;;;;;5.32;2.35;;;;;;;;;;4132051;28;20495;-65
2023/11/05 05:11:32;;;;;;;4.65;2.08;;;;;;;;;;4132420;28;20039;-65
2023/11/05 05:13:34;;;;;;;11.45;3.03;;;;;;;;;;4132163;28;20042;-65
2023/11/05 05:15:36;;;;;;;9.80;3.33;;;;;;;;;;4131955;28;20423;-66
2023/11/05 05:17:38;;;;;;;9.07;4.85;;;;;;;;;;4132121;28;20052;-66
2023/11/05 05:19:39;;;;;;;9.88;3.78;;;;;;;;;;4132118;28;20043;-66
2023/11/05 05:21:42;;;;;;;6.47;2.90;;;;;;;;;;4131892;28;20438;-65
2023/11/05 05:23:43;;;;;;;9.63;3.00;;;;;;;;;;4131986;28;20039;-66
2023/11/05 05:25:45;;;;;;;4.37;3.97;;;;;;;;;;4131693;28;20038;-65
2023/11/05 05:27:47;;;;;;;11.65;2.53;;;;;;;;;;4132195;28;20372;-66
2023/11/05 05:29:48;;;;;;;5.93;3.27;;;;;;;;;;4131881;28;20045;-65
2023/11/05 05:31:50;;;;;;;2.20;1.83;;;;;;;;;;4131868;28;20297;-65
2023/11/05 05:33:52;;;;;;;5.72;1.73;;;;;;;;;;4131050;28;20585;-65
2023/11/05 05:35:54;;;;;;;5.65;1.85;;;;;;;;;;4131748;28;20069;-65
2023/11/05 05:37:55;;;;;;;5.03;1.58;;;;;;;;;;4131880;28;20402;-65
2023/11/05 05:39:57;;;;;;;2.30;1.35;;;;;;;;;;4131688;28;20089;-65
2023/11/05 05:42:02;;;;;;;5.78;1.98;;;;;;;;;;4132016;28;20060;-65
2023/11/05 05:44:04;;;;;;;7.68;1.88;;;;;;;;;;4124377;28;20089;-65
2023/11/05 05:46:07;;;;;;;2.35;1.40;;;;;;;;;;4126152;28;20466;-66
2023/11/05 05:48:08;;;;;;;6.93;2.05;;;;;;;;;;4131406;28;20034;-65
2023/11/05 05:50:11;;;;;;;4.55;1.50;;;;;;;;;;4131255;28;20140;-65
2023/11/05 05:52:13;;;;;;;6.45;2.28;;;;;;;;;;4131608;28;20507;-65
2023/11/05 05:54:14;;;;;;;2.67;2.45;;;;;;;;;;4131560;28;20042;-64
2023/11/05 05:56:16;;;;;;;6.43;1.20;;;;;;;;;;4131829;28;20042;-64
2023/11/05 05:58:21;;;;;;;4.53;1.30;;;;;;;;;;4131411;28;20034;-64
2023/11/05 06:00:23;;;;;;;3.33;1.35;;;;;;;;;;4131108;28;20086;-65
2023/11/05 06:02:28;;;;;;;4.57;1.23;;;;;;;;;;4131754;28;20767;-65
2023/11/05 06:04:29;;;;;;;5.07;1.73;;;;;;;;;;4131248;28;20077;-65
2023/11/05 06:06:31;;;;;;;3.65;1.40;;;;;;;;;;4131115;28;20054;-64
2023/11/05 06:08:33;;;;;;;1.47;1.37;;;;;;;;;;4131226;28;20112;-63
2023/11/05 06:10:34;;;;;;;16.90;2.40;;;;;;;;;;4131104;28;20614;-64
2023/11/05 06:12:37;;;;;;;1.90;1.55;;;;;;;;;;4129454;28;20083;-64
2023/11/05 06:14:39;;;;;;;3.70;1.50;;;;;;;;;;4125605;28;20064;-64
2023/11/05 06:16:49;;;;;;;3.10;1.73;;;;;;;;;;4131198;28;20051;-65
2023/11/05 06:18:51;;;;;;;6.40;1.83;;;;;;;;;;4131109;28;20062;-64
2023/11/05 06:20:54;;;;;;;6.22;1.70;;;;;;;;;;4130721;28;20514;-63
2023/11/05 06:22:56;;;;;;;2.35;1.30;;;;;;;;;;4130879;28;20026;-64
2023/11/05 06:24:58;;;;;;;3.95;1.20;;;;;;;;;;4131092;28;20097;-65
2023/11/05 06:26:59;;;;;;;2.15;1.30;;;;;;;;;;4130907;28;20073;-65
2023/11/05 06:29:02;;;;;;;3.88;1.45;;;;;;;;;;4130969;28;20043;-63
2023/11/05 06:31:04;;;;;;;;;;;;;;;;;;4131388;28;20034;-63
2023/11/05 06:33:05;;;;;;;2.80;1.23;;;;;;;;;;4130952;28;19936;-64
2023/11/05 06:35:07;;;;;;;4.20;2.00;;;;;;;;;;4129280;28;20042;-64
2023/11/05 06:37:09;;;;;;;4.85;2.65;;;;;;;;;;4125849;28;20529;-63
2023/11/05 06:39:11;;;;;;;2.83;1.67;;;;;;;;;;4127199;28;20050;-64
2023/11/05 06:41:13;;;;;;;6.32;1.55;;;;;;;;;;4130664;28;20316;-63
2023/11/05 06:43:15;;;;;;;4.68;1.75;;;;;;;;;;4130825;28;20035;-63
2023/11/05 06:45:16;;;;;;;2.33;1.23;;;;;;;;;;4130229;28;20073;-64
2023/11/05 06:47:18;;;;;;;3.70;1.90;;;;;;;;;;4125090;28;20096;-63
2023/11/05 06:49:23;;;;;;;3.95;2.38;;;;;;;;;;4124941;28;20053;-63
2023/11/05 06:51:25;;;;;;;3.05;1.20;;;;;;;;;;4128278;28;20039;-63
2023/11/05 06:53:26;;;;;;;7.43;1.60;;;;;;;;;;4130715;28;20046;-63
2023/11/05 06:55:28;;;;;;;6.17;1.60;;;;;;;;;;4130578;28;20289;-63
2023/11/05 06:57:31;;;;;;;3.10;1.33;;;;;;;;;;4127051;28;20058;-64
2023/11/05 06:59:33;;;;;;;3.33;1.98;;;;;;;;;;4128389;28;20105;-63
2023/11/05 07:01:34;;;;;;;5.75;1.70;;;;;;;;;;4130212;28;20039;-63
2023/11/05 07:03:36;;;;;;;1.60;1.50;;;;;;;;;;4130386;28;20041;-63
2023/11/05 07:05:38;;;;;;;4.22;1.50;;;;;;;;;;4122035;28;20109;-63
2023/11/05 07:07:40;;;;;;;2.75;1.20;;;;;;;;;;4121306;28;20042;-63
2023/11/05 07:09:42;;;;;;;2.85;1.23;;;;;;;;;;4130193;28;20113;-63
2023/11/05 07:11:44;;;;;;;6.03;3.05;;;;;;;;;;4129004;28;20042;-62
2023/11/05 07:13:46;;;;;;;4.60;2.58;;;;;;;;;;4130310;28;20042;-63
2023/11/05 07:15:48;;;;;;;2.55;1.95;;;;;;;;;;4130338;28;20042;-63
2023/11/05 07:17:50;;;;;;;5.15;2.55;;;;;;;;;;4130094;28;20057;-62
2023/11/05 07:19:52;;;;;;;2.03;1.77;;;;;;;;;;4130279;28;20042;-63
2023/11/05 07:21:54;;;;;;;2.58;1.63;;;;;;;;;;4122212;28;20066;-63
2023/11/05 07:23:56;;;;;;;6.03;1.63;;;;;;;;;;4125184;28;20042;-63
2023/11/05 07:25:57;;;;;;;2.70;2.20;;;;;;;;;;4125670;28;20398;-63
2023/11/05 07:27:59;;;;;;;3.40;1.20;;;;;;;;;;4129293;28;20089;-62
2023/11/05 07:30:01;;;;;;;3.88;2.13;;;;;;;;;;4129709;28;20030;-63
2023/11/05 07:32:03;;;;;;;2.22;1.65;;;;;;;;;;4129927;28;20038;-63
2023/11/05 07:34:05;;;;;;;3.03;1.30;;;;;;;;;;4133537;28;20418;-63
2023/11/05 07:36:07;;;;;;;3.80;1.65;;;;;;;;;;4125379;28;20050;-63
2023/11/05 07:38:08;;;;;;;11.57;2.38;;;;;;;;;;4130135;28;20034;-62
2023/11/05 07:40:11;;;;;;;2.28;1.15;;;;;;;;;;4121866;28;20046;-63
2023/11/05 07:42:12;;;;;;;2.08;1.35;;;;;;;;;;4127226;28;20034;-63
2023/11/05 07:44:14;;;;;;;2.53;1.10;;;;;;;;;;4129001;28;20045;-63
2023/11/05 07:46:17;;;;;;;3.53;2.42;;;;;;;;;;4127542;28;20097;-63
2023/11/05 07:48:18;;;;;;;7.43;2.25;;;;;;;;;;4126483;28;20137;-63
2023/11/05 07:50:22;;;;;;;4.60;2.63;;;;;;;;;;4128218;28;20051;-64
2023/11/05 07:52:23;;;;;;;2.83;2.63;;;;;;;;;;4125704;28;20113;-62
2023/11/05 07:54:28;;;;;;;4.65;2.00;;;;;;;;;;4120592;28;20042;-63
2023/11/05 07:56:30;;;;;;;4.60;2.10;;;;;;;;;;4124165;28;20049;-62
2023/11/05 07:58:32;;;;;;;1.70;1.60;;;;;;;;;;4121737;28;20042;-63
2023/11/05 08:00:34;;;;;;;3.20;1.98;;;;;;;;;;4130786;28;20049;-63
2023/11/05 08:02:36;;;;;;;3.80;1.25;;;;;;;;;;4125559;28;20038;-64
2023/11/05 08:04:38;;;;;;;2.67;1.27;;;;;;;;;;4127708;28;20062;-62
2023/11/05 08:06:43;;;;;;;1.95;1.75;;;;;;;;;;4130911;28;20536;-63
2023/11/05 08:08:45;;;;;;;2.17;1.20;;;;;;;;;;4132831;28;20066;-62
2023/11/05 08:10:46;;;;;;;3.25;1.67;;;;;;;;;;4130868;28;20174;-61
2023/11/05 08:12:48;;;;;;;2.50;1.33;;;;;;;;;;4124345;28;20038;-64
2023/11/05 08:14:50;;;;;;;1.33;1.10;;;;;;;;;;4129674;28;20038;-63
2023/11/05 08:16:52;;;;;;;4.97;1.90;;;;;;;;;;4130673;28;20121;-63
2023/11/05 08:18:54;;;;;;;3.83;1.55;;;;;;;;;;4132748;28;20402;-62
2023/11/05 08:20:56;;;;;;;6.80;1.85;;;;;;;;;;4114654;28;20042;-62
2023/11/05 08:22:58;;;;;;;3.92;1.52;;;;;;;;;;4132661;28;20035;-63
2023/11/05 08:24:59;;;;;;;3.05;1.20;;;;;;;;;;4132502;28;20101;-61
2023/11/05 08:27:01;;;;;;;3.20;1.00;;;;;;;;;;4131218;28;20030;-62
2023/11/05 08:29:03;;;;;;;4.53;1.67;;;;;;;;;;4127793;28;20038;-62
2023/11/05 08:31:06;;;;;;;2.40;1.50;;;;;;;;;;4132680;28;20042;-63
2023/11/05 08:33:09;;;;;;;4.97;1.40;;;;;;;;;;4111235;28;20063;-61
2023/11/05 08:35:11;;;;;;;2.70;1.10;;;;;;;;;;4129815;28;20114;-61
2023/11/05 08:37:15;;;;;;;3.35;1.10;;;;;;;;;;4126393;28;20039;-62
2023/11/05 08:39:19;;;;;;;4.22;1.88;;;;;;;;;;4129301;28;20053;-61
2023/11/05 08:41:21;;;;;;;2.65;1.05;;;;;;;;;;4131965;28;20034;-63
2023/11/05 08:43:23;;;;;;;2.40;1.25;;;;;;;;;;4115474;28;20118;-62
2023/11/05 08:45:25;;;;;;;3.90;1.13;;;;;;;;;;4128329;28;20614;-61
2023/11/05 08:47:27;;;;;;;;;;;;;;;;;;4129739;28;20522;-61
2023/11/05 08:49:29;;;;;;;1.98;1.25;;;;;;;;;;4131303;28;20369;-62
2023/11/05 08:51:33;;;;;;;10.23;2.08;;;;;;;;;;4130080;28;20053;-60
2023/11/05 08:53:35;;;;;;;2.47;1.10;;;;;;;;;;4130870;28;20035;-62
2023/11/05 08:55:37;;;;;;;4.47;2.40;;;;;;;;;;4128080;28;20046;-62
2023/11/05 08:57:39;;;;;;;4.03;1.25;;;;;;;;;;4131256;28;20296;-61
2023/11/05 08:59:40;;;;;;;2.30;1.40;;;;;;;;;;4124226;28;20038;-62
2023/11/05 09:01:42;;;;;;;3.90;1.60;;;;;;;;;;4123355;28;20799;-63
2023/11/05 09:03:44;;;;;;;2.50;1.33;;;;;;;;;;4131952;28;20384;-62
2023/11/05 09:05:47;;;;;;;;;;;;;;;;;;4132383;28;20066;-62
2023/11/05 09:07:50;;;;;;;1.35;1.30;;;;;;;;;;4130943;28;19926;-61
2023/11/05 09:09:52;;;;;;;3.97;1.20;;;;;;;;;;4126625;28;20038;-61
2023/11/05 09:11:54;;;;;;;1.35;1.00;;;;;;;;;;4125341;28;20438;-61
2023/11/05 09:13:56;;;;;;;1.88;1.00;;;;;;;;;;4129730;28;20054;-63
2023/11/05 09:15:58;;;;;;;3.30;1.00;;;;;;;;;;4111121;28;20080;-62
2023/11/05 09:17:59;;;;;;;2.33;1.00;;;;;;;;;;4128383;28;20043;-61
2023/11/05 09:20:01;;;;;;;1.55;1.00;;;;;;;;;;4130938;28;20724;-61
2023/11/05 09:22:04;;;;;;;1.38;1.08;;;;;;;;;;4128793;28;20057;-61
2023/11/05 09:24:06;;;;;;;2.70;1.10;;;;;;;;;;4126678;28;20042;-66
2023/11/05 09:26:07;;;;;;;2.22;1.10;;;;;;;;;;4114926;28;20046;-66
2023/11/05 09:28:09;;;;;;;2.95;1.00;;;;;;;;;;4131692;28;20049;-65
2023/11/05 09:30:14;;;;;;;2.25;1.00;;;;;;;;;;4127973;28;20438;-66
2023/11/05 09:32:16;;;;;;;1.92;1.00;;;;;;;;;;4131782;28;20043;-66
2023/11/05 09:34:18;;;;;;;2.03;1.90;;;;;;;;;;4131604;28;20042;-66
2023/11/05 09:36:20;;;;;;;1.48;1.38;;;;;;;;;;4131917;28;20042;-65
2023/11/05 09:38:21;;;;;;;1.10;1.00;;;;;;;;;;4129088;28;20406;-65
2023/11/05 09:40:23;;;;;;;2.45;1.20;;;;;;;;;;4130607;28;20061;-65
2023/11/05 09:42:25;;;;;;;1.65;1.25;;;;;;;;;;4131027;28;20133;-66
2023/11/05 09:44:27;;;;;;;1.33;1.05;;;;;;;;;;4131440;28;20031;-67
2023/11/05 09:46:29;;;;;;;1.17;0.93;;;;;;;;;;4130095;28;20069;-65
2023/11/05 09:48:30;;;;;;;3.03;1.10;;;;;;;;;;4131570;28;20054;-66
2023/11/05 09:50:33;;;;;;;0.90;0.90;;;;;;;;;;4131059;28;20088;-65
2023/11/05 09:52:38;;;;;;;1.38;1.10;;;;;;;;;;4129810;28;20557;-66
2023/11/05 09:54:44;;;;;;;2.25;1.00;;;;;;;;;;4122122;28;20039;-65
2023/11/05 09:56:46;;;;;;;1.70;1.00;;;;;;;;;;4109952;28;20570;-65
2023/11/05 09:58:48;;;;;;;4.50;1.15;;;;;;;;;;4128467;28;20046;-65
2023/11/05 10:00:51;;;;;;;2.03;1.00;;;;;;;;;;4130469;28;20038;-65
2023/11/05 10:03:01;;;;;;;3.25;1.20;;;;;;;;;;4126845;28;20039;-65
2023/11/05 10:05:03;;;;;;;1.40;1.00;;;;;;;;;;4115795;28;20522;-66
2023/11/05 10:07:05;;;;;;;2.35;1.05;;;;;;;;;;4127941;28;20125;-65
2023/11/05 10:09:11;;;;;;;2.80;1.30;;;;;;;;;;4122409;28;20045;-65
2023/11/05 10:11:13;;;;;;;1.23;1.23;;;;;;;;;;4131384;28;20046;-66
2023/11/05 10:13:15;;;;;;;;;;;;;;;;;;4130197;28;20038;-65
2023/11/05 10:15:19;;;;;;;1.20;1.10;;;;;;;;;;4129780;28;19934;-66
2023/11/05 10:17:23;;;;;;;2.47;1.45;;;;;;;;;;4130176;28;20426;-66
2023/11/05 10:19:25;;;;;;;1.55;1.45;;;;;;;;;;4126770;28;20042;-66
2023/11/05 10:21:34;;;;;;;1.50;1.10;;;;;;;;;;4129975;28;20046;-67
2023/11/05 10:23:49;;;;;;;1.02;0.90;;;;;;;;;;4140255;28;20034;-66
2023/11/05 10:25:51;;;;;;;1.73;1.13;;;;;;;;;;4120797;28;20105;-66
2023/11/05 10:27:53;;;;;;;1.08;0.98;;;;;;;;;;4129965;28;20042;-66
2023/11/05 10:29:56;;;;;;;7.35;1.33;;;;;;;;;;4130261;28;20466;-65
2023/11/05 10:31:57;;;;;;;;;;;;;;;;;;4112349;28;20055;-66
2023/11/05 10:33:59;;;;;;;1.92;1.45;;;;;;;;;;4129746;28;19925;-66
2023/11/05 10:36:01;;;;;;;6.80;1.45;;;;;;;;;;4130620;28;20466;-66
2023/11/05 10:38:03;;;;;;;1.80;1.25;;;;;;;;;;4130131;28;20473;-65
2023/11/05 10:40:05;;;;;;;1.27;1.10;;;;;;;;;;4130044;28;20458;-66
2023/11/05 10:42:12;;;;;;;4.00;1.27;;;;;;;;;;4130116;28;20042;-66
2023/11/05 10:44:15;;;;;;;1.00;0.90;;;;;;;;;;4130357;28;20038;-66
2023/11/05 10:46:17;;;;;;;2.20;1.00;;;;;;;;;;4127797;28;20046;-66
2023/11/05 10:48:19;;;;;;;;;;;;;;;;;;4129015;28;20073;-65
2023/11/05 10:50:23;;;;;;;2.38;1.00;;;;;;;;;;4130702;28;20341;-65
2023/11/05 10:52:25;;;;;;;1.13;0.90;;;;;;;;;;4113571;28;20089;-66
2023/11/05 10:54:39;;;;;;;0.80;0.80;;;;;;;;;;4130585;28;20042;-65
2023/11/05 10:56:43;;;;;;;1.65;0.95;;;;;;;;;;4130828;28;20042;-66
2023/11/05 10:58:44;;;;;;;4.13;1.00;;;;;;;;;;4131008;28;20042;-65
2023/11/05 11:00:58;;;;;;;5.63;1.25;;;;;;;;;;4128448;28;20050;-65
2023/11/05 11:03:01;;;;;;;1.00;1.00;;;;;;;;;;4130292;28;20121;-65
2023/11/05 11:05:04;;;;;;;4.63;0.95;;;;;;;;;;4130761;28;20038;-65
2023/11/05 11:07:06;;;;;;;2.67;1.00;;;;;;;;;;4113866;28;20106;-66
2023/11/05 11:09:08;;;;;;;1.10;1.10;;;;;;;;;;4131012;28;20026;-66
2023/11/05 11:11:14;;;;;;;1.23;0.90;;;;;;;;;;4130714;28;20089;-66
2023/11/05 11:13:19;;;;;;;2.95;0.90;;;;;;;;;;4131195;28;20050;-66
2023/11/05 11:15:35;;;;;;;1.48;1.05;;;;;;;;;;4130812;28;20050;-66
2023/11/05 11:17:40;;;;;;;3.47;1.00;;;;;;;;;;4130931;28;20527;-66
2023/11/05 11:19:43;;;;;;;4.32;1.38;;;;;;;;;;4144643;28;20069;-65
2023/11/05 11:21:49;;;;;;;2.85;0.98;;;;;;;;;;4129475;28;20685;-65
2023/11/05 11:23:51;;;;;;;2.80;0.93;;;;;;;;;;4139950;28;20098;-65
2023/11/05 11:26:01;;;;;;;1.50;1.20;;;;;;;;;;4113209;28;20051;-66
2023/11/05 11:28:09;;;;;;;3.70;0.90;;;;;;;;;;4130494;28;20042;-66
2023/11/05 11:30:11;;;;;;;1.75;0.90;;;;;;;;;;4129871;28;20084;-65
2023/11/05 11:32:15;;;;;;;1.90;0.90;;;;;;;;;;4128781;28;20409;-65
2023/11/05 11:34:20;;;;;;;1.55;0.80;;;;;;;;;;4129264;28;20066;-65
2023/11/05 11:36:23;;;;;;;3.42;1.00;;;;;;;;;;4130142;28;20046;-65
2023/11/05 11:38:25;;;;;;;3.78;1.30;;;;;;;;;;4130154;28;20046;-65
2023/11/05 11:40:27;;;;;;;1.65;1.20;;;;;;;;;;4130064;28;20048;-65
2023/11/05 11:42:35;;;;;;;1.80;1.10;;;;;;;;;;4128400;28;20122;-65
2023/11/05 11:44:37;;;;;;;1.52;0.90;;;;;;;;;;4103603;28;20074;-66
2023/11/05 11:46:40;;;;;;;1.83;0.98;;;;;;;;;;4125957;28;20038;-65
2023/11/05 11:48:41;;;;;;;0.82;0.80;;;;;;;;;;4130068;28;20096;-65
2023/11/05 11:50:50;;;;;;;0.80;0.80;;;;;;;;;;4126451;28;20046;-66
2023/11/05 11:52:52;;;;;;;4.32;0.90;;;;;;;;;;4124261;28;20496;-65
2023/11/05 11:54:56;;;;;;;1.38;1.00;;;;;;;;;;4130148;28;20526;-65
2023/11/05 11:56:58;;;;;;;2.78;0.90;;;;;;;;;;4129507;28;20034;-65
2023/11/05 11:59:03;;;;;;;0.93;0.93;;;;;;;;;;4127925;28;20046;-65
2023/11/05 12:01:13;;;;;;;1.02;0.90;;;;;;;;;;4129258;28;20042;-66
2023/11/05 12:03:15;;;;;;;1.23;0.80;;;;;;;;;;4129887;28;20506;-65
2023/11/05 12:05:20;;;;;;;2.88;0.88;;;;;;;;;;4129728;28;20533;-65
2023/11/05 12:07:22;;;;;;;2.72;1.33;;;;;;;;;;4129758;28;20510;-66
2023/11/05 12:09:25;;;;;;;1.05;0.88;;;;;;;;;;4129764;28;20074;-65
2023/11/05 12:11:32;;;;;;;1.40;1.15;;;;;;;;;;4129778;28;20046;-65
2023/11/05 12:13:35;;;;;;;1.27;0.90;;;;;;;;;;4128627;28;20106;-65
2023/11/05 12:15:37;;;;;;;2.55;0.90;;;;;;;;;;4126904;28;20155;-61
2023/11/05 12:17:39;;;;;;;;;;;;;;;;;;4129955;28;20046;-62